PWSweather.com
Personal Weather Stations
Station Observations
THRCKWTHR1
Aveley, EssexGB RM154EL

AveleyEssexGB RM154EL

Lat: 51.5000552, Lon: 0.2501753000000235

Elevation: 98.5

Station Type: Oregon Scientific WMR88

www.facebook.com/thurrockweather

High Low Average
Temperature 56.7°F13.7°C 42.3°F5.7°C 49.2°F9.6°C
Dew Point 52.5°F11.4°C 36.6°F2.6°C 42.2°F5.7°C
Winds 10.4 mph 16.7 kmh Calm Calm 3.0 mph S4.8 kmh S
Wind Gusts 13.6 mph21.9 kmh -- 5.0 mph8.0 kmh
Humidity 98% 54% 78%
Pressure 30.66 in1038.3 mb 30.42 in1030.1 mb -
Precipitation 0.00 in0.0 mm - -
Hour Temp Dew Point Humidity Winds Wind Gusts Pressure Precip Precip Rate Daily Precip Total
12:00 AM 53.1°F11.7°C 52.2°F11.2°C 97% 2.5 mph NNE4.0 kmh NNE 7.9 mph12.7 kmh 30.42 in1030.1 mb 0.00 in0.0 mm 0.00 in0.0 mm 0.00 in0.0 mm
12:05 AM 53.1°F11.7°C 52.2°F11.2°C 97% 1.1 mph NNE1.8 kmh NNE 7.1 mph11.4 kmh 30.42 in1030.1 mb 0.00 in0.0 mm 0.00 in0.0 mm 0.00 in0.0 mm
12:10 AM 53.1°F11.7°C 52.2°F11.2°C 97% 3.3 mph N5.3 kmh N 7.1 mph11.4 kmh 30.42 in1030.1 mb 0.00 in0.0 mm 0.00 in0.0 mm 0.00 in0.0 mm
12:15 AM 53.1°F11.7°C 52.2°F11.2°C 97% 3.0 mph NW4.8 kmh NW 3.5 mph5.6 kmh 30.42 in1030.1 mb 0.00 in0.0 mm 0.00 in0.0 mm 0.00 in0.0 mm
12:20 AM 53.1°F11.7°C 52.2°F11.2°C 97% 1.4 mph NNW2.3 kmh NNW 3.8 mph6.1 kmh 30.42 in1030.1 mb 0.00 in0.0 mm 0.00 in0.0 mm 0.00 in0.0 mm
12:25 AM 53.1°F11.7°C 52.2°F11.2°C 97% 2.5 mph NW4.0 kmh NW 4.6 mph7.4 kmh 30.42 in1030.1 mb 0.00 in0.0 mm 0.00 in0.0 mm 0.00 in0.0 mm
12:30 AM 53.1°F11.7°C 52.5°F11.4°C 98% 5.2 mph N8.4 kmh N 5.2 mph8.4 kmh 30.42 in1030.1 mb 0.00 in0.0 mm 0.00 in0.0 mm 0.00 in0.0 mm
12:35 AM 53.1°F11.7°C 52.5°F11.4°C 98% 3.8 mph N6.1 kmh N 5.2 mph8.4 kmh 30.42 in1030.1 mb 0.00 in0.0 mm 0.00 in0.0 mm 0.00 in0.0 mm
12:40 AM 53.1°F11.7°C 52.5°F11.4°C 98% 2.5 mph NNW4.0 kmh NNW 5.2 mph8.4 kmh 30.42 in1030.1 mb 0.00 in0.0 mm 0.00 in0.0 mm 0.00 in0.0 mm
12:45 AM 52.9°F11.6°C 52.3°F11.3°C 98% 1.1 mph N1.8 kmh N 4.9 mph7.9 kmh 30.42 in1030.1 mb 0.00 in0.0 mm 0.00 in0.0 mm 0.00 in0.0 mm
12:50 AM 52.9°F11.6°C 52.3°F11.3°C 98% 2.5 mph N4.0 kmh N 4.9 mph7.9 kmh 30.42 in1030.1 mb 0.00 in0.0 mm 0.00 in0.0 mm 0.00 in0.0 mm
12:55 AM 52.9°F11.6°C 52.3°F11.3°C 98% 3.3 mph NNW5.3 kmh NNW 5.2 mph8.4 kmh 30.42 in1030.1 mb 0.00 in0.0 mm 0.00 in0.0 mm 0.00 in0.0 mm
01:00 AM 52.7°F11.5°C 52.2°F11.2°C 98% 5.2 mph N8.4 kmh N 6.0 mph9.7 kmh 30.45 in1031.2 mb 0.00 in0.0 mm 0.00 in0.0 mm 0.00 in0.0 mm
01:05 AM 52.5°F11.4°C 51.7°F10.9°C 97% 3.5 mph N5.6 kmh N 6.0 mph9.7 kmh 30.45 in1031.2 mb 0.00 in0.0 mm 0.00 in0.0 mm 0.00 in0.0 mm
01:10 AM 52.5°F11.4°C 51.7°F10.9°C 97% 1.6 mph N2.6 kmh N 7.1 mph11.4 kmh 30.45 in1031.2 mb 0.00 in0.0 mm 0.00 in0.0 mm 0.00 in0.0 mm
01:15 AM 52.3°F11.3°C 51.5°F10.8°C 97% 4.6 mph N7.4 kmh N 7.1 mph11.4 kmh 30.45 in1031.2 mb 0.00 in0.0 mm 0.00 in0.0 mm 0.00 in0.0 mm
01:20 AM 52.3°F11.3°C 51.2°F10.7°C 96% 4.1 mph N6.6 kmh N 6.0 mph9.7 kmh 30.45 in1031.2 mb 0.00 in0.0 mm 0.00 in0.0 mm 0.00 in0.0 mm
01:25 AM 52.2°F11.2°C 51.1°F10.6°C 96% 3.3 mph N5.3 kmh N 6.0 mph9.7 kmh 30.45 in1031.2 mb 0.00 in0.0 mm 0.00 in0.0 mm 0.00 in0.0 mm
01:30 AM 51.8°F11.0°C 50.4°F10.2°C 95% 5.2 mph NNW8.4 kmh NNW 9.8 mph15.8 kmh 30.45 in1031.2 mb 0.00 in0.0 mm 0.00 in0.0 mm 0.00 in0.0 mm
01:35 AM 52.0°F11.1°C 50.3°F10.2°C 94% 7.9 mph N12.7 kmh N 9.8 mph15.8 kmh 30.45 in1031.2 mb 0.00 in0.0 mm 0.00 in0.0 mm 0.00 in0.0 mm
01:40 AM 52.0°F11.1°C 50.0°F10.0°C 93% 4.4 mph N7.1 kmh N 10.6 mph17.1 kmh 30.45 in1031.2 mb 0.00 in0.0 mm 0.00 in0.0 mm 0.00 in0.0 mm
01:45 AM 52.0°F11.1°C 50.6°F10.3°C 95% 4.6 mph N7.4 kmh N 10.6 mph17.1 kmh 30.45 in1031.2 mb 0.00 in0.0 mm 0.00 in0.0 mm 0.00 in0.0 mm
01:50 AM 52.0°F11.1°C 50.3°F10.2°C 94% 1.9 mph NNE3.1 kmh NNE 11.7 mph18.8 kmh 30.45 in1031.2 mb 0.00 in0.0 mm 0.00 in0.0 mm 0.00 in0.0 mm
01:55 AM 52.0°F11.1°C 50.6°F10.3°C 95% 7.6 mph NNE12.2 kmh NNE 11.7 mph18.8 kmh 30.45 in1031.2 mb 0.00 in0.0 mm 0.00 in0.0 mm 0.00 in0.0 mm
02:00 AM 52.0°F11.1°C 50.6°F10.3°C 95% 7.9 mph N12.7 kmh N 7.9 mph12.7 kmh 30.45 in1031.2 mb 0.00 in0.0 mm 0.00 in0.0 mm 0.00 in0.0 mm
02:05 AM 52.0°F11.1°C 50.6°F10.3°C 95% 4.9 mph N7.9 kmh N 7.9 mph12.7 kmh 30.45 in1031.2 mb 0.00 in0.0 mm 0.00 in0.0 mm 0.00 in0.0 mm
02:10 AM 52.0°F11.1°C 50.6°F10.3°C 95% 7.1 mph N11.4 kmh N 13.6 mph21.9 kmh 30.45 in1031.2 mb 0.00 in0.0 mm 0.00 in0.0 mm 0.00 in0.0 mm
02:15 AM 51.8°F11.0°C 50.4°F10.2°C 95% 3.5 mph N5.6 kmh N 13.6 mph21.9 kmh 30.48 in1032.2 mb 0.00 in0.0 mm 0.00 in0.0 mm 0.00 in0.0 mm
02:20 AM 51.8°F11.0°C 50.7°F10.4°C 96% 1.1 mph NNW1.8 kmh NNW 7.1 mph11.4 kmh 30.48 in1032.2 mb 0.00 in0.0 mm 0.00 in0.0 mm 0.00 in0.0 mm
02:25 AM 51.8°F11.0°C 50.7°F10.4°C 96% 5.2 mph NNW8.4 kmh NNW 7.1 mph11.4 kmh 30.48 in1032.2 mb 0.00 in0.0 mm 0.00 in0.0 mm 0.00 in0.0 mm
02:30 AM 51.6°F10.9°C 50.8°F10.4°C 97% 6.5 mph N10.5 kmh N 7.1 mph11.4 kmh 30.48 in1032.2 mb 0.00 in0.0 mm 0.00 in0.0 mm 0.00 in0.0 mm
02:35 AM 51.6°F10.9°C 50.5°F10.3°C 96% 3.8 mph N6.1 kmh N 6.5 mph10.5 kmh 30.48 in1032.2 mb 0.00 in0.0 mm 0.00 in0.0 mm 0.00 in0.0 mm
02:40 AM 51.1°F10.6°C 49.7°F9.8°C 95% 3.8 mph N6.1 kmh N 7.4 mph11.9 kmh 30.48 in1032.2 mb 0.00 in0.0 mm 0.00 in0.0 mm 0.00 in0.0 mm
02:45 AM 50.9°F10.5°C 49.2°F9.6°C 94% 3.3 mph NNW5.3 kmh NNW 7.9 mph12.7 kmh 30.48 in1032.2 mb 0.00 in0.0 mm 0.00 in0.0 mm 0.00 in0.0 mm
02:50 AM 50.5°F10.3°C 48.9°F9.4°C 94% 3.3 mph NW5.3 kmh NW 7.9 mph12.7 kmh 30.48 in1032.2 mb 0.00 in0.0 mm 0.00 in0.0 mm 0.00 in0.0 mm
02:55 AM 50.4°F10.2°C 48.7°F9.3°C 94% 4.1 mph NW6.6 kmh NW 6.8 mph10.9 kmh 30.48 in1032.2 mb 0.00 in0.0 mm 0.00 in0.0 mm 0.00 in0.0 mm
03:00 AM 49.8°F9.9°C 48.2°F9.0°C 94% 7.4 mph NW11.9 kmh NW 7.4 mph11.9 kmh 30.48 in1032.2 mb 0.00 in0.0 mm 0.00 in0.0 mm 0.00 in0.0 mm
03:05 AM 49.3°F9.6°C 47.9°F8.8°C 95% 1.4 mph NNW2.3 kmh NNW 7.4 mph11.9 kmh 30.48 in1032.2 mb 0.00 in0.0 mm 0.00 in0.0 mm 0.00 in0.0 mm
03:10 AM 49.1°F9.5°C 47.4°F8.6°C 94% 2.5 mph N4.0 kmh N 9.3 mph15.0 kmh 30.48 in1032.2 mb 0.00 in0.0 mm 0.00 in0.0 mm 0.00 in0.0 mm
03:15 AM 48.9°F9.4°C 47.6°F8.7°C 95% 4.6 mph NW7.4 kmh NW 9.3 mph15.0 kmh 30.48 in1032.2 mb 0.00 in0.0 mm 0.00 in0.0 mm 0.00 in0.0 mm
03:20 AM 48.6°F9.2°C 47.5°F8.6°C 96% 4.1 mph NNW6.6 kmh NNW 5.2 mph8.4 kmh 30.48 in1032.2 mb 0.00 in0.0 mm 0.00 in0.0 mm 0.00 in0.0 mm
03:25 AM 48.4°F9.1°C 47.0°F8.3°C 95% 1.6 mph N2.6 kmh N 7.9 mph12.7 kmh 30.48 in1032.2 mb 0.00 in0.0 mm 0.00 in0.0 mm 0.00 in0.0 mm
03:30 AM 48.0°F8.9°C 46.9°F8.3°C 96% 1.9 mph N3.1 kmh N 7.9 mph12.7 kmh 30.48 in1032.2 mb 0.00 in0.0 mm 0.00 in0.0 mm 0.00 in0.0 mm
03:35 AM 47.8°F8.8°C 46.8°F8.2°C 96% 2.5 mph NNW4.0 kmh NNW 7.9 mph12.7 kmh 30.48 in1032.2 mb 0.00 in0.0 mm 0.00 in0.0 mm 0.00 in0.0 mm
03:40 AM 47.7°F8.7°C 46.6°F8.1°C 96% 6.8 mph N10.9 kmh N 6.8 mph10.9 kmh 30.48 in1032.2 mb 0.00 in0.0 mm 0.00 in0.0 mm 0.00 in0.0 mm
03:45 AM 47.3°F8.5°C 46.2°F7.9°C 96% 4.9 mph NNW7.9 kmh NNW 6.8 mph10.9 kmh 30.48 in1032.2 mb 0.00 in0.0 mm 0.00 in0.0 mm 0.00 in0.0 mm
03:50 AM 47.1°F8.4°C 46.0°F7.8°C 96% 3.3 mph N5.3 kmh N 6.5 mph10.5 kmh 30.48 in1032.2 mb 0.00 in0.0 mm 0.00 in0.0 mm 0.00 in0.0 mm
03:55 AM 46.9°F8.3°C 45.9°F7.7°C 96% 4.1 mph N6.6 kmh N 6.5 mph10.5 kmh 30.48 in1032.2 mb 0.00 in0.0 mm 0.00 in0.0 mm 0.00 in0.0 mm
04:00 AM 46.9°F8.3°C 45.9°F7.7°C 96% 5.7 mph NNW9.2 kmh NNW 7.4 mph11.9 kmh 30.51 in1033.2 mb 0.00 in0.0 mm 0.00 in0.0 mm 0.00 in0.0 mm
04:05 AM 46.8°F8.2°C 45.4°F7.4°C 95% 3.8 mph NNW6.1 kmh NNW 7.6 mph12.2 kmh 30.51 in1033.2 mb 0.00 in0.0 mm 0.00 in0.0 mm 0.00 in0.0 mm
04:10 AM 46.4°F8.0°C 45.3°F7.4°C 96% 4.1 mph N6.6 kmh N 7.6 mph12.2 kmh 30.51 in1033.2 mb 0.00 in0.0 mm 0.00 in0.0 mm 0.00 in0.0 mm
04:15 AM 46.6°F8.1°C 45.5°F7.5°C 96% 4.4 mph N7.1 kmh N 4.6 mph7.4 kmh 30.51 in1033.2 mb 0.00 in0.0 mm 0.00 in0.0 mm 0.00 in0.0 mm
04:20 AM 46.4°F8.0°C 45.3°F7.4°C 96% 4.1 mph N6.6 kmh N 7.6 mph12.2 kmh 30.51 in1033.2 mb 0.00 in0.0 mm 0.00 in0.0 mm 0.00 in0.0 mm
04:25 AM 46.4°F8.0°C 45.3°F7.4°C 96% 5.2 mph N8.4 kmh N 7.6 mph12.2 kmh 30.51 in1033.2 mb 0.00 in0.0 mm 0.00 in0.0 mm 0.00 in0.0 mm
04:30 AM 46.2°F7.9°C 45.4°F7.4°C 97% 3.0 mph N4.8 kmh N 5.2 mph8.4 kmh 30.51 in1033.2 mb 0.00 in0.0 mm 0.00 in0.0 mm 0.00 in0.0 mm
04:35 AM 46.2°F7.9°C 45.4°F7.4°C 97% 4.4 mph N7.1 kmh N 5.2 mph8.4 kmh 30.51 in1033.2 mb 0.00 in0.0 mm 0.00 in0.0 mm 0.00 in0.0 mm
04:40 AM 46.2°F7.9°C 45.4°F7.4°C 97% 3.8 mph N6.1 kmh N 5.7 mph9.2 kmh 30.51 in1033.2 mb 0.00 in0.0 mm 0.00 in0.0 mm 0.00 in0.0 mm
04:45 AM 46.0°F7.8°C 45.2°F7.3°C 97% 3.3 mph N5.3 kmh N 5.7 mph9.2 kmh 30.51 in1033.2 mb 0.00 in0.0 mm 0.00 in0.0 mm 0.00 in0.0 mm
04:50 AM 46.0°F7.8°C 45.2°F7.3°C 97% 1.4 mph N2.3 kmh N 10.6 mph17.1 kmh 30.51 in1033.2 mb 0.00 in0.0 mm 0.00 in0.0 mm 0.00 in0.0 mm
04:55 AM 45.9°F7.7°C 45.1°F7.3°C 97% 4.1 mph NNW6.6 kmh NNW 10.6 mph17.1 kmh 30.51 in1033.2 mb 0.00 in0.0 mm 0.00 in0.0 mm 0.00 in0.0 mm
05:00 AM 45.7°F7.6°C 44.9°F7.2°C 97% 1.9 mph NNW3.1 kmh NNW 4.1 mph6.6 kmh 30.51 in1033.2 mb 0.00 in0.0 mm 0.00 in0.0 mm 0.00 in0.0 mm
05:05 AM 45.5°F7.5°C 45.0°F7.2°C 98% 3.0 mph NNW4.8 kmh NNW 4.1 mph6.6 kmh 30.51 in1033.2 mb 0.00 in0.0 mm 0.00 in0.0 mm 0.00 in0.0 mm
05:10 AM 45.5°F7.5°C 45.0°F7.2°C 98% 4.9 mph NNW7.9 kmh NNW 6.8 mph10.9 kmh 30.51 in1033.2 mb 0.00 in0.0 mm 0.00 in0.0 mm 0.00 in0.0 mm
05:15 AM 45.3°F7.4°C 44.5°F6.9°C 97% 3.5 mph NNW5.6 kmh NNW 6.8 mph10.9 kmh 30.51 in1033.2 mb 0.00 in0.0 mm 0.00 in0.0 mm 0.00 in0.0 mm
05:20 AM 45.3°F7.4°C 44.5°F6.9°C 97% 1.9 mph NNW3.1 kmh NNW 4.9 mph7.9 kmh 30.51 in1033.2 mb 0.00 in0.0 mm 0.00 in0.0 mm 0.00 in0.0 mm
05:25 AM 45.3°F7.4°C 44.5°F6.9°C 97% 3.8 mph NNW6.1 kmh NNW 4.9 mph7.9 kmh 30.51 in1033.2 mb 0.00 in0.0 mm 0.00 in0.0 mm 0.00 in0.0 mm
05:30 AM 45.1°F7.3°C 44.3°F6.8°C 97% 3.0 mph NW4.8 kmh NW 4.1 mph6.6 kmh 30.51 in1033.2 mb 0.00 in0.0 mm 0.00 in0.0 mm 0.00 in0.0 mm
05:35 AM 45.1°F7.3°C 44.3°F6.8°C 97% 1.4 mph NW2.3 kmh NW 4.1 mph6.6 kmh 30.51 in1033.2 mb 0.00 in0.0 mm 0.00 in0.0 mm 0.00 in0.0 mm
05:40 AM 45.0°F7.2°C 44.4°F6.9°C 98% 1.1 mph N1.8 kmh N 3.3 mph5.3 kmh 30.51 in1033.2 mb 0.00 in0.0 mm 0.00 in0.0 mm 0.00 in0.0 mm
05:45 AM 44.8°F7.1°C 44.3°F6.8°C 98% 1.9 mph NW3.1 kmh NW 3.0 mph4.8 kmh 30.54 in1034.2 mb 0.00 in0.0 mm 0.00 in0.0 mm 0.00 in0.0 mm
05:50 AM 44.8°F7.1°C 44.3°F6.8°C 98% 3.3 mph NNW5.3 kmh NNW 4.4 mph7.1 kmh 30.54 in1034.2 mb 0.00 in0.0 mm 0.00 in0.0 mm 0.00 in0.0 mm
05:55 AM 44.8°F7.1°C 44.3°F6.8°C 98% 1.9 mph N3.1 kmh N 4.4 mph7.1 kmh 30.54 in1034.2 mb 0.00 in0.0 mm 0.00 in0.0 mm 0.00 in0.0 mm
06:00 AM 44.6°F7.0°C 44.1°F6.7°C 98% 2.7 mph N4.3 kmh N 3.8 mph6.1 kmh 30.54 in1034.2 mb 0.00 in0.0 mm 0.00 in0.0 mm 0.00 in0.0 mm
06:05 AM 44.6°F7.0°C 44.1°F6.7°C 98% 1.4 mph N2.3 kmh N 5.2 mph8.4 kmh 30.54 in1034.2 mb 0.00 in0.0 mm 0.00 in0.0 mm 0.00 in0.0 mm
06:10 AM 44.4°F6.9°C 43.9°F6.6°C 98% 2.5 mph N4.0 kmh N 5.2 mph8.4 kmh 30.54 in1034.2 mb 0.00 in0.0 mm 0.00 in0.0 mm 0.00 in0.0 mm
06:15 AM 44.4°F6.9°C 43.9°F6.6°C 98% 2.5 mph NNW4.0 kmh NNW 4.1 mph6.6 kmh 30.54 in1034.2 mb 0.00 in0.0 mm 0.00 in0.0 mm 0.00 in0.0 mm
06:20 AM 44.4°F6.9°C 43.9°F6.6°C 98% 1.4 mph NW2.3 kmh NW 4.6 mph7.4 kmh 30.54 in1034.2 mb 0.00 in0.0 mm 0.00 in0.0 mm 0.00 in0.0 mm
06:25 AM 44.2°F6.8°C 43.7°F6.5°C 98% 3.8 mph NNW6.1 kmh NNW 4.6 mph7.4 kmh 30.54 in1034.2 mb 0.00 in0.0 mm 0.00 in0.0 mm 0.00 in0.0 mm
06:30 AM 44.2°F6.8°C 43.7°F6.5°C 98% Calm Calm 3.8 mph6.1 kmh 30.54 in1034.2 mb 0.00 in0.0 mm 0.00 in0.0 mm 0.00 in0.0 mm
06:35 AM 44.1°F6.7°C 43.5°F6.4°C 98% 3.8 mph N6.1 kmh N 3.8 mph6.1 kmh 30.54 in1034.2 mb 0.00 in0.0 mm 0.00 in0.0 mm 0.00 in0.0 mm
06:40 AM 44.1°F6.7°C 43.5°F6.4°C 98% 1.4 mph N2.3 kmh N 3.8 mph6.1 kmh 30.54 in1034.2 mb 0.00 in0.0 mm 0.00 in0.0 mm 0.00 in0.0 mm
06:45 AM 44.1°F6.7°C 43.5°F6.4°C 98% Calm Calm 4.9 mph7.9 kmh 30.57 in1035.2 mb 0.00 in0.0 mm 0.00 in0.0 mm 0.00 in0.0 mm
06:50 AM 43.9°F6.6°C 43.4°F6.3°C 98% 2.7 mph NNW4.3 kmh NNW 4.9 mph7.9 kmh 30.57 in1035.2 mb 0.00 in0.0 mm 0.00 in0.0 mm 0.00 in0.0 mm
06:55 AM 43.9°F6.6°C 43.4°F6.3°C 98% 2.7 mph N4.3 kmh N 4.4 mph7.1 kmh 30.57 in1035.2 mb 0.00 in0.0 mm 0.00 in0.0 mm 0.00 in0.0 mm
07:00 AM 43.9°F6.6°C 43.4°F6.3°C 98% 2.5 mph N4.0 kmh N 4.4 mph7.1 kmh 30.57 in1035.2 mb 0.00 in0.0 mm 0.00 in0.0 mm 0.00 in0.0 mm
07:05 AM 43.9°F6.6°C 43.4°F6.3°C 98% Calm Calm 3.3 mph5.3 kmh 30.57 in1035.2 mb 0.00 in0.0 mm 0.00 in0.0 mm 0.00 in0.0 mm
07:10 AM 44.1°F6.7°C 43.5°F6.4°C 98% 1.4 mph N2.3 kmh N 3.0 mph4.8 kmh 30.57 in1035.2 mb 0.00 in0.0 mm 0.00 in0.0 mm 0.00 in0.0 mm
07:15 AM 44.1°F6.7°C 43.5°F6.4°C 98% 1.9 mph NW3.1 kmh NW 1.9 mph3.1 kmh 30.57 in1035.2 mb 0.00 in0.0 mm 0.00 in0.0 mm 0.00 in0.0 mm
07:20 AM 44.1°F6.7°C 43.5°F6.4°C 98% 2.5 mph NW4.0 kmh NW 2.5 mph4.0 kmh 30.57 in1035.2 mb 0.00 in0.0 mm 0.00 in0.0 mm 0.00 in0.0 mm
07:25 AM 44.1°F6.7°C 43.5°F6.4°C 98% 1.9 mph NW3.1 kmh NW 3.3 mph5.3 kmh 30.57 in1035.2 mb 0.00 in0.0 mm 0.00 in0.0 mm 0.00 in0.0 mm
07:30 AM 44.2°F6.8°C 43.7°F6.5°C 98% 4.1 mph NNW6.6 kmh NNW 4.1 mph6.6 kmh 30.57 in1035.2 mb 0.00 in0.0 mm 0.00 in0.0 mm 0.00 in0.0 mm
07:35 AM 44.4°F6.9°C 43.9°F6.6°C 98% 1.1 mph N1.8 kmh N 4.1 mph6.6 kmh 30.57 in1035.2 mb 0.00 in0.0 mm 0.00 in0.0 mm 0.00 in0.0 mm
07:40 AM 44.8°F7.1°C 44.0°F6.7°C 97% 4.1 mph NNW6.6 kmh NNW 4.1 mph6.6 kmh 30.57 in1035.2 mb 0.00 in0.0 mm 0.00 in0.0 mm 0.00 in0.0 mm
07:45 AM 45.0°F7.2°C 44.2°F6.8°C 97% 1.9 mph NNW3.1 kmh NNW 4.1 mph6.6 kmh 30.60 in1036.2 mb 0.00 in0.0 mm 0.00 in0.0 mm 0.00 in0.0 mm
07:50 AM 45.3°F7.4°C 44.5°F6.9°C 97% 1.1 mph NNW1.8 kmh NNW 4.4 mph7.1 kmh 30.60 in1036.2 mb 0.00 in0.0 mm 0.00 in0.0 mm 0.00 in0.0 mm
07:55 AM 45.9°F7.7°C 45.1°F7.3°C 97% 4.1 mph NNW6.6 kmh NNW 4.4 mph7.1 kmh 30.60 in1036.2 mb 0.00 in0.0 mm 0.00 in0.0 mm 0.00 in0.0 mm
08:00 AM 46.2°F7.9°C 45.1°F7.3°C 96% 4.4 mph NNW7.1 kmh NNW 4.9 mph7.9 kmh 30.60 in1036.2 mb 0.00 in0.0 mm 0.00 in0.0 mm 0.00 in0.0 mm
08:05 AM 46.9°F8.3°C 45.9°F7.7°C 96% 1.4 mph NNW2.3 kmh NNW 5.2 mph8.4 kmh 30.60 in1036.2 mb 0.00 in0.0 mm 0.00 in0.0 mm 0.00 in0.0 mm
08:10 AM 47.3°F8.5°C 45.9°F7.7°C 95% 4.4 mph NNW7.1 kmh NNW 5.5 mph8.9 kmh 30.60 in1036.2 mb 0.00 in0.0 mm 0.00 in0.0 mm 0.00 in0.0 mm
08:15 AM 47.8°F8.8°C 46.5°F8.1°C 95% Calm Calm 5.5 mph8.9 kmh 30.60 in1036.2 mb 0.00 in0.0 mm 0.00 in0.0 mm 0.00 in0.0 mm
08:20 AM 48.9°F9.4°C 47.3°F8.5°C 94% 1.9 mph N3.1 kmh N 6.0 mph9.7 kmh 30.60 in1036.2 mb 0.00 in0.0 mm 0.00 in0.0 mm 0.00 in0.0 mm
08:25 AM 49.5°F9.7°C 47.5°F8.6°C 93% 1.4 mph N2.3 kmh N 6.0 mph9.7 kmh 30.60 in1036.2 mb 0.00 in0.0 mm 0.00 in0.0 mm 0.00 in0.0 mm
08:30 AM 49.8°F9.9°C 47.9°F8.8°C 93% 2.7 mph N4.3 kmh N 6.8 mph10.9 kmh 30.60 in1036.2 mb 0.00 in0.0 mm 0.00 in0.0 mm 0.00 in0.0 mm
08:35 AM 50.2°F10.1°C 47.9°F8.8°C 92% 4.9 mph N7.9 kmh N 6.8 mph10.9 kmh 30.60 in1036.2 mb 0.00 in0.0 mm 0.00 in0.0 mm 0.00 in0.0 mm
08:40 AM 50.5°F10.3°C 47.4°F8.6°C 89% 1.9 mph NNE3.1 kmh NNE 5.2 mph8.4 kmh 30.60 in1036.2 mb 0.00 in0.0 mm 0.00 in0.0 mm 0.00 in0.0 mm
08:45 AM 50.7°F10.4°C 47.0°F8.3°C 87% 3.5 mph NNE5.6 kmh NNE 4.9 mph7.9 kmh 30.63 in1037.3 mb 0.00 in0.0 mm 0.00 in0.0 mm 0.00 in0.0 mm
08:50 AM 51.1°F10.6°C 46.7°F8.2°C 85% 4.9 mph NNE7.9 kmh NNE 7.4 mph11.9 kmh 30.63 in1037.3 mb 0.00 in0.0 mm 0.00 in0.0 mm 0.00 in0.0 mm
08:55 AM 51.3°F10.7°C 46.6°F8.1°C 84% 6.5 mph NNE10.5 kmh NNE 7.4 mph11.9 kmh 30.63 in1037.3 mb 0.00 in0.0 mm 0.00 in0.0 mm 0.00 in0.0 mm
09:00 AM 51.6°F10.9°C 46.6°F8.1°C 83% 4.6 mph N7.4 kmh N 6.8 mph10.9 kmh 30.63 in1037.3 mb 0.00 in0.0 mm 0.00 in0.0 mm 0.00 in0.0 mm
09:05 AM 51.4°F10.8°C 45.8°F7.7°C 81% 4.1 mph N6.6 kmh N 6.8 mph10.9 kmh 30.63 in1037.3 mb 0.00 in0.0 mm 0.00 in0.0 mm 0.00 in0.0 mm
09:10 AM 51.6°F10.9°C 45.7°F7.6°C 80% 9.3 mph NNE15.0 kmh NNE 9.3 mph15.0 kmh 30.63 in1037.3 mb 0.00 in0.0 mm 0.00 in0.0 mm 0.00 in0.0 mm
09:15 AM 51.6°F10.9°C 45.3°F7.4°C 79% 4.1 mph NE6.6 kmh NE 9.3 mph15.0 kmh 30.63 in1037.3 mb 0.00 in0.0 mm 0.00 in0.0 mm 0.00 in0.0 mm
09:20 AM 51.8°F11.0°C 44.8°F7.1°C 77% 3.0 mph NNE4.8 kmh NNE 9.3 mph15.0 kmh 30.63 in1037.3 mb 0.00 in0.0 mm 0.00 in0.0 mm 0.00 in0.0 mm
09:25 AM 52.2°F11.2°C 44.8°F7.1°C 76% 4.1 mph N6.6 kmh N 7.1 mph11.4 kmh 30.63 in1037.3 mb 0.00 in0.0 mm 0.00 in0.0 mm 0.00 in0.0 mm
09:30 AM 52.3°F11.3°C 45.0°F7.2°C 76% 4.9 mph N7.9 kmh N 9.8 mph15.8 kmh 30.63 in1037.3 mb 0.00 in0.0 mm 0.00 in0.0 mm 0.00 in0.0 mm
09:35 AM 52.3°F11.3°C 44.6°F7.0°C 75% 7.1 mph N11.4 kmh N 9.8 mph15.8 kmh 30.63 in1037.3 mb 0.00 in0.0 mm 0.00 in0.0 mm 0.00 in0.0 mm
09:40 AM 52.7°F11.5°C 44.6°F7.0°C 74% 2.7 mph NE4.3 kmh NE 7.1 mph11.4 kmh 30.63 in1037.3 mb 0.00 in0.0 mm 0.00 in0.0 mm 0.00 in0.0 mm
09:45 AM 52.7°F11.5°C 44.6°F7.0°C 74% 4.1 mph N6.6 kmh N 4.6 mph7.4 kmh 30.63 in1037.3 mb 0.00 in0.0 mm 0.00 in0.0 mm 0.00 in0.0 mm
09:50 AM 52.7°F11.5°C 43.9°F6.6°C 72% 2.5 mph NNE4.0 kmh NNE 7.1 mph11.4 kmh 30.63 in1037.3 mb 0.00 in0.0 mm 0.00 in0.0 mm 0.00 in0.0 mm
09:55 AM 53.1°F11.7°C 44.6°F7.0°C 73% 3.0 mph NNE4.8 kmh NNE 7.1 mph11.4 kmh 30.63 in1037.3 mb 0.00 in0.0 mm 0.00 in0.0 mm 0.00 in0.0 mm
10:00 AM 53.2°F11.8°C 44.4°F6.9°C 72% 3.3 mph N5.3 kmh N 5.2 mph8.4 kmh 30.63 in1037.3 mb 0.00 in0.0 mm 0.00 in0.0 mm 0.00 in0.0 mm
10:05 AM 53.8°F12.1°C 45.0°F7.2°C 72% 3.0 mph NE4.8 kmh NE 5.2 mph8.4 kmh 30.63 in1037.3 mb 0.00 in0.0 mm 0.00 in0.0 mm 0.00 in0.0 mm
10:10 AM 53.8°F12.1°C 44.2°F6.8°C 70% 6.0 mph NNE9.7 kmh NNE 6.5 mph10.5 kmh 30.63 in1037.3 mb 0.00 in0.0 mm 0.00 in0.0 mm 0.00 in0.0 mm
10:15 AM 54.0°F12.2°C 44.8°F7.1°C 71% 3.5 mph NNE5.6 kmh NNE 6.5 mph10.5 kmh 30.63 in1037.3 mb 0.00 in0.0 mm 0.00 in0.0 mm 0.00 in0.0 mm
10:20 AM 53.8°F12.1°C 43.5°F6.4°C 68% 4.4 mph NNE7.1 kmh NNE 6.0 mph9.7 kmh 30.63 in1037.3 mb 0.00 in0.0 mm 0.00 in0.0 mm 0.00 in0.0 mm
10:25 AM 53.6°F12.0°C 42.5°F5.8°C 66% 3.5 mph NE5.6 kmh NE 9.3 mph15.0 kmh 30.63 in1037.3 mb 0.00 in0.0 mm 0.00 in0.0 mm 0.00 in0.0 mm
10:30 AM 54.0°F12.2°C 43.6°F6.4°C 68% 4.9 mph NE7.9 kmh NE 9.3 mph15.0 kmh 30.63 in1037.3 mb 0.00 in0.0 mm 0.00 in0.0 mm 0.00 in0.0 mm
10:35 AM 54.1°F12.3°C 44.2°F6.8°C 69% 7.1 mph NNE11.4 kmh NNE 7.4 mph11.9 kmh 30.63 in1037.3 mb 0.00 in0.0 mm 0.00 in0.0 mm 0.00 in0.0 mm
10:40 AM 54.1°F12.3°C 41.8°F5.4°C 63% 4.1 mph N6.6 kmh N 7.4 mph11.9 kmh 30.63 in1037.3 mb 0.00 in0.0 mm 0.00 in0.0 mm 0.00 in0.0 mm
10:45 AM 54.1°F12.3°C 42.6°F5.9°C 65% 6.0 mph N9.7 kmh N 7.4 mph11.9 kmh 30.63 in1037.3 mb 0.00 in0.0 mm 0.00 in0.0 mm 0.00 in0.0 mm
10:50 AM 54.3°F12.4°C 42.8°F6.0°C 65% 3.0 mph NNE4.8 kmh NNE 10.9 mph17.5 kmh 30.63 in1037.3 mb 0.00 in0.0 mm 0.00 in0.0 mm 0.00 in0.0 mm
10:55 AM 54.5°F12.5°C 43.4°F6.3°C 66% 6.0 mph NNE9.7 kmh NNE 10.9 mph17.5 kmh 30.63 in1037.3 mb 0.00 in0.0 mm 0.00 in0.0 mm 0.00 in0.0 mm
11:00 AM 54.5°F12.5°C 42.6°F5.9°C 64% 1.9 mph NNE3.1 kmh NNE 7.1 mph11.4 kmh 30.63 in1037.3 mb 0.00 in0.0 mm 0.00 in0.0 mm 0.00 in0.0 mm
11:05 AM 54.7°F12.6°C 43.1°F6.2°C 65% 4.6 mph NNE7.4 kmh NNE 7.1 mph11.4 kmh 30.63 in1037.3 mb 0.00 in0.0 mm 0.00 in0.0 mm 0.00 in0.0 mm
11:10 AM 54.7°F12.6°C 42.3°F5.7°C 63% 6.8 mph N10.9 kmh N 7.1 mph11.4 kmh 30.63 in1037.3 mb 0.00 in0.0 mm 0.00 in0.0 mm 0.00 in0.0 mm
11:15 AM 54.9°F12.7°C 42.9°F6.1°C 64% 4.9 mph N7.9 kmh N 6.8 mph10.9 kmh 30.63 in1037.3 mb 0.00 in0.0 mm 0.00 in0.0 mm 0.00 in0.0 mm
11:20 AM 55.0°F12.8°C 43.1°F6.2°C 64% 4.6 mph NE7.4 kmh NE 7.9 mph12.7 kmh 30.63 in1037.3 mb 0.00 in0.0 mm 0.00 in0.0 mm 0.00 in0.0 mm
11:25 AM 55.4°F13.0°C 42.6°F5.9°C 62% 3.3 mph NE5.3 kmh NE 7.9 mph12.7 kmh 30.63 in1037.3 mb 0.00 in0.0 mm 0.00 in0.0 mm 0.00 in0.0 mm
11:30 AM 55.8°F13.2°C 42.9°F6.1°C 62% 2.5 mph NE4.0 kmh NE 10.6 mph17.1 kmh 30.63 in1037.3 mb 0.00 in0.0 mm 0.00 in0.0 mm 0.00 in0.0 mm
11:35 AM 55.9°F13.3°C 43.1°F6.2°C 62% 4.9 mph NE7.9 kmh NE 10.6 mph17.1 kmh 30.63 in1037.3 mb 0.00 in0.0 mm 0.00 in0.0 mm 0.00 in0.0 mm
11:40 AM 55.6°F13.1°C 42.3°F5.7°C 61% 5.5 mph NE8.9 kmh NE 6.8 mph10.9 kmh 30.63 in1037.3 mb 0.00 in0.0 mm 0.00 in0.0 mm 0.00 in0.0 mm
11:45 AM 55.8°F13.2°C 42.5°F5.8°C 61% 10.4 mph NNE16.7 kmh NNE 10.4 mph16.7 kmh 30.63 in1037.3 mb 0.00 in0.0 mm 0.00 in0.0 mm 0.00 in0.0 mm
11:50 AM 55.8°F13.2°C 42.1°F5.6°C 60% 4.1 mph NNE6.6 kmh NNE 10.4 mph16.7 kmh 30.63 in1037.3 mb 0.00 in0.0 mm 0.00 in0.0 mm 0.00 in0.0 mm
11:55 AM 56.1°F13.4°C 42.4°F5.8°C 60% 3.5 mph NNE5.6 kmh NNE 10.4 mph16.7 kmh 30.63 in1037.3 mb 0.00 in0.0 mm 0.00 in0.0 mm 0.00 in0.0 mm
12:00 PM 56.5°F13.6°C 42.8°F6.0°C 60% 2.7 mph ENE4.3 kmh ENE 4.6 mph7.4 kmh 30.63 in1037.3 mb 0.00 in0.0 mm 0.00 in0.0 mm 0.00 in0.0 mm
12:05 PM 56.5°F13.6°C 42.8°F6.0°C 60% 4.4 mph NE7.1 kmh NE 4.6 mph7.4 kmh 30.63 in1037.3 mb 0.00 in0.0 mm 0.00 in0.0 mm 0.00 in0.0 mm
12:10 PM 56.1°F13.4°C 41.1°F5.1°C 57% 2.5 mph N4.0 kmh N 4.9 mph7.9 kmh 30.63 in1037.3 mb 0.00 in0.0 mm 0.00 in0.0 mm 0.00 in0.0 mm
12:15 PM 56.5°F13.6°C 41.9°F5.5°C 58% 2.5 mph N4.0 kmh N 4.9 mph7.9 kmh 30.63 in1037.3 mb 0.00 in0.0 mm 0.00 in0.0 mm 0.00 in0.0 mm
12:20 PM 56.7°F13.7°C 42.5°F5.8°C 59% 3.0 mph NE4.8 kmh NE 3.8 mph6.1 kmh 30.63 in1037.3 mb 0.00 in0.0 mm 0.00 in0.0 mm 0.00 in0.0 mm
12:25 PM 56.7°F13.7°C 42.0°F5.6°C 58% 6.8 mph NNE10.9 kmh NNE 8.7 mph14.0 kmh 30.63 in1037.3 mb 0.00 in0.0 mm 0.00 in0.0 mm 0.00 in0.0 mm
12:30 PM 56.3°F13.5°C 40.3°F4.6°C 55% 6.5 mph N10.5 kmh N 8.7 mph14.0 kmh 30.63 in1037.3 mb 0.00 in0.0 mm 0.00 in0.0 mm 0.00 in0.0 mm
12:35 PM 55.8°F13.2°C 39.4°F4.1°C 54% 6.5 mph N10.5 kmh N 7.6 mph12.2 kmh 30.63 in1037.3 mb 0.00 in0.0 mm 0.00 in0.0 mm 0.00 in0.0 mm
12:40 PM 55.6°F13.1°C 39.2°F4.0°C 54% 4.6 mph N7.4 kmh N 6.5 mph10.5 kmh 30.63 in1037.3 mb 0.00 in0.0 mm 0.00 in0.0 mm 0.00 in0.0 mm
12:45 PM 55.4°F13.0°C 39.5°F4.2°C 55% 6.8 mph NNE10.9 kmh NNE 6.8 mph10.9 kmh 30.63 in1037.3 mb 0.00 in0.0 mm 0.00 in0.0 mm 0.00 in0.0 mm
12:50 PM 55.0°F12.8°C 38.7°F3.7°C 54% 4.1 mph N6.6 kmh N 6.8 mph10.9 kmh 30.63 in1037.3 mb 0.00 in0.0 mm 0.00 in0.0 mm 0.00 in0.0 mm
12:55 PM 54.9°F12.7°C 38.5°F3.6°C 54% 4.4 mph NNW7.1 kmh NNW 6.8 mph10.9 kmh 30.63 in1037.3 mb 0.00 in0.0 mm 0.00 in0.0 mm 0.00 in0.0 mm
01:00 PM 54.5°F12.5°C 38.2°F3.4°C 54% 3.5 mph N5.6 kmh N 7.9 mph12.7 kmh 30.63 in1037.3 mb 0.00 in0.0 mm 0.00 in0.0 mm 0.00 in0.0 mm
01:05 PM 54.7°F12.6°C 38.8°F3.8°C 55% 3.3 mph NNE5.3 kmh NNE 7.9 mph12.7 kmh 30.63 in1037.3 mb 0.00 in0.0 mm 0.00 in0.0 mm 0.00 in0.0 mm
01:10 PM 54.7°F12.6°C 38.8°F3.8°C 55% 3.5 mph NE5.6 kmh NE 6.8 mph10.9 kmh 30.63 in1037.3 mb 0.00 in0.0 mm 0.00 in0.0 mm 0.00 in0.0 mm
01:15 PM 54.7°F12.6°C 39.3°F4.1°C 56% 3.3 mph NNE5.3 kmh NNE 6.8 mph10.9 kmh 30.63 in1037.3 mb 0.00 in0.0 mm 0.00 in0.0 mm 0.00 in0.0 mm
01:20 PM 54.7°F12.6°C 39.3°F4.1°C 56% 9.0 mph N14.5 kmh N 9.0 mph14.5 kmh 30.63 in1037.3 mb 0.00 in0.0 mm 0.00 in0.0 mm 0.00 in0.0 mm
01:25 PM 54.7°F12.6°C 38.8°F3.8°C 55% 4.4 mph NNE7.1 kmh NNE 9.0 mph14.5 kmh 30.63 in1037.3 mb 0.00 in0.0 mm 0.00 in0.0 mm 0.00 in0.0 mm
01:30 PM 54.5°F12.5°C 39.1°F3.9°C 56% 1.1 mph NE1.8 kmh NE 6.0 mph9.7 kmh 30.63 in1037.3 mb 0.00 in0.0 mm 0.00 in0.0 mm 0.00 in0.0 mm
01:35 PM 54.7°F12.6°C 39.3°F4.1°C 56% 3.5 mph NE5.6 kmh NE 3.5 mph5.6 kmh 30.63 in1037.3 mb 0.00 in0.0 mm 0.00 in0.0 mm 0.00 in0.0 mm
01:40 PM 54.7°F12.6°C 39.3°F4.1°C 56% 2.5 mph N4.0 kmh N 4.9 mph7.9 kmh 30.63 in1037.3 mb 0.00 in0.0 mm 0.00 in0.0 mm 0.00 in0.0 mm
01:45 PM 54.5°F12.5°C 38.7°F3.7°C 55% 4.1 mph N6.6 kmh N 5.7 mph9.2 kmh 30.63 in1037.3 mb 0.00 in0.0 mm 0.00 in0.0 mm 0.00 in0.0 mm
01:50 PM 54.5°F12.5°C 39.1°F3.9°C 56% 1.9 mph NNW3.1 kmh NNW 5.7 mph9.2 kmh 30.63 in1037.3 mb 0.00 in0.0 mm 0.00 in0.0 mm 0.00 in0.0 mm
01:55 PM 54.5°F12.5°C 38.7°F3.7°C 55% 3.8 mph NNW6.1 kmh NNW 6.5 mph10.5 kmh 30.63 in1037.3 mb 0.00 in0.0 mm 0.00 in0.0 mm 0.00 in0.0 mm
02:00 PM 54.5°F12.5°C 39.6°F4.2°C 57% 5.2 mph NNW8.4 kmh NNW 6.5 mph10.5 kmh 30.63 in1037.3 mb 0.00 in0.0 mm 0.00 in0.0 mm 0.00 in0.0 mm
02:05 PM 54.3°F12.4°C 39.4°F4.1°C 57% 2.7 mph NNW4.3 kmh NNW 5.2 mph8.4 kmh 30.63 in1037.3 mb 0.00 in0.0 mm 0.00 in0.0 mm 0.00 in0.0 mm
02:10 PM 54.3°F12.4°C 39.4°F4.1°C 57% 7.1 mph N11.4 kmh N 7.1 mph11.4 kmh 30.63 in1037.3 mb 0.00 in0.0 mm 0.00 in0.0 mm 0.00 in0.0 mm
02:15 PM 54.3°F12.4°C 39.4°F4.1°C 57% 3.3 mph NNW5.3 kmh NNW 7.1 mph11.4 kmh 30.63 in1037.3 mb 0.00 in0.0 mm 0.00 in0.0 mm 0.00 in0.0 mm
02:20 PM 54.3°F12.4°C 39.4°F4.1°C 57% 3.8 mph NNW6.1 kmh NNW 7.1 mph11.4 kmh 30.63 in1037.3 mb 0.00 in0.0 mm 0.00 in0.0 mm 0.00 in0.0 mm
02:25 PM 54.5°F12.5°C 39.6°F4.2°C 57% 7.1 mph N11.4 kmh N 7.4 mph11.9 kmh 30.63 in1037.3 mb 0.00 in0.0 mm 0.00 in0.0 mm 0.00 in0.0 mm
02:30 PM 54.3°F12.4°C 39.4°F4.1°C 57% 7.4 mph NNW11.9 kmh NNW 7.4 mph11.9 kmh 30.63 in1037.3 mb 0.00 in0.0 mm 0.00 in0.0 mm 0.00 in0.0 mm
02:35 PM 54.3°F12.4°C 39.8°F4.3°C 58% 1.9 mph N3.1 kmh N 7.4 mph11.9 kmh 30.63 in1037.3 mb 0.00 in0.0 mm 0.00 in0.0 mm 0.00 in0.0 mm
02:40 PM 54.3°F12.4°C 39.4°F4.1°C 57% 3.0 mph N4.8 kmh N 7.4 mph11.9 kmh 30.63 in1037.3 mb 0.00 in0.0 mm 0.00 in0.0 mm 0.00 in0.0 mm
02:45 PM 54.3°F12.4°C 39.4°F4.1°C 57% 5.2 mph N8.4 kmh N 5.2 mph8.4 kmh 30.63 in1037.3 mb 0.00 in0.0 mm 0.00 in0.0 mm 0.00 in0.0 mm
02:50 PM 54.1°F12.3°C 38.8°F3.8°C 56% 4.4 mph N7.1 kmh N 9.0 mph14.5 kmh 30.63 in1037.3 mb 0.00 in0.0 mm 0.00 in0.0 mm 0.00 in0.0 mm
02:55 PM 54.0°F12.2°C 37.7°F3.2°C 54% 3.3 mph NW5.3 kmh NW 9.0 mph14.5 kmh 30.63 in1037.3 mb 0.00 in0.0 mm 0.00 in0.0 mm 0.00 in0.0 mm
03:00 PM 53.8°F12.1°C 38.4°F3.6°C 56% 2.5 mph NW4.0 kmh NW 7.9 mph12.7 kmh 30.63 in1037.3 mb 0.00 in0.0 mm 0.00 in0.0 mm 0.00 in0.0 mm
03:05 PM 53.8°F12.1°C 38.9°F3.8°C 57% 3.0 mph NNE4.8 kmh NNE 6.5 mph10.5 kmh 30.63 in1037.3 mb 0.00 in0.0 mm 0.00 in0.0 mm 0.00 in0.0 mm
03:10 PM 53.8°F12.1°C 38.4°F3.6°C 56% 1.6 mph NNE2.6 kmh NNE 6.5 mph10.5 kmh 30.63 in1037.3 mb 0.00 in0.0 mm 0.00 in0.0 mm 0.00 in0.0 mm
03:15 PM 53.6°F12.0°C 38.3°F3.5°C 56% 3.0 mph N4.8 kmh N 6.5 mph10.5 kmh 30.63 in1037.3 mb 0.00 in0.0 mm 0.00 in0.0 mm 0.00 in0.0 mm
03:20 PM 53.6°F12.0°C 38.7°F3.7°C 57% 3.0 mph N4.8 kmh N 5.7 mph9.2 kmh 30.63 in1037.3 mb 0.00 in0.0 mm 0.00 in0.0 mm 0.00 in0.0 mm
03:25 PM 53.6°F12.0°C 38.3°F3.5°C 56% 3.5 mph NNW5.6 kmh NNW 5.7 mph9.2 kmh 30.63 in1037.3 mb 0.00 in0.0 mm 0.00 in0.0 mm 0.00 in0.0 mm
03:30 PM 53.4°F11.9°C 38.6°F3.7°C 57% 3.3 mph N5.3 kmh N 5.7 mph9.2 kmh 30.63 in1037.3 mb 0.00 in0.0 mm 0.00 in0.0 mm 0.00 in0.0 mm
03:35 PM 53.2°F11.8°C 38.4°F3.6°C 57% 1.1 mph NE1.8 kmh NE 3.3 mph5.3 kmh 30.63 in1037.3 mb 0.00 in0.0 mm 0.00 in0.0 mm 0.00 in0.0 mm
03:40 PM 53.2°F11.8°C 38.4°F3.6°C 57% 4.6 mph N7.4 kmh N 4.6 mph7.4 kmh 30.63 in1037.3 mb 0.00 in0.0 mm 0.00 in0.0 mm 0.00 in0.0 mm
03:45 PM 53.1°F11.7°C 38.2°F3.4°C 57% 3.0 mph NW4.8 kmh NW 4.6 mph7.4 kmh 30.60 in1036.2 mb 0.00 in0.0 mm 0.00 in0.0 mm 0.00 in0.0 mm
03:50 PM 52.9°F11.6°C 38.5°F3.6°C 58% 2.7 mph NW4.3 kmh NW 4.6 mph7.4 kmh 30.60 in1036.2 mb 0.00 in0.0 mm 0.00 in0.0 mm 0.00 in0.0 mm
03:55 PM 52.9°F11.6°C 38.5°F3.6°C 58% 3.8 mph NNW6.1 kmh NNW 4.6 mph7.4 kmh 30.60 in1036.2 mb 0.00 in0.0 mm 0.00 in0.0 mm 0.00 in0.0 mm
04:00 PM 52.5°F11.4°C 38.6°F3.7°C 59% Calm Calm 4.6 mph7.4 kmh 30.63 in1037.3 mb 0.00 in0.0 mm 0.00 in0.0 mm 0.00 in0.0 mm
04:05 PM 52.5°F11.4°C 38.6°F3.7°C 59% 3.3 mph N5.3 kmh N 4.1 mph6.6 kmh 30.63 in1037.3 mb 0.00 in0.0 mm 0.00 in0.0 mm 0.00 in0.0 mm
04:10 PM 52.3°F11.3°C 38.4°F3.6°C 59% 2.7 mph NW4.3 kmh NW 4.1 mph6.6 kmh 30.63 in1037.3 mb 0.00 in0.0 mm 0.00 in0.0 mm 0.00 in0.0 mm
04:15 PM 52.2°F11.2°C 38.7°F3.7°C 60% 1.1 mph NNW1.8 kmh NNW 4.1 mph6.6 kmh 30.63 in1037.3 mb 0.00 in0.0 mm 0.00 in0.0 mm 0.00 in0.0 mm
04:20 PM 52.0°F11.1°C 38.9°F3.8°C 61% Calm Calm 4.1 mph6.6 kmh 30.63 in1037.3 mb 0.00 in0.0 mm 0.00 in0.0 mm 0.00 in0.0 mm
04:25 PM 51.6°F10.9°C 39.0°F3.9°C 62% 1.9 mph NE3.1 kmh NE 2.7 mph4.3 kmh 30.63 in1037.3 mb 0.00 in0.0 mm 0.00 in0.0 mm 0.00 in0.0 mm
04:30 PM 51.6°F10.9°C 39.0°F3.9°C 62% Calm Calm 3.3 mph5.3 kmh 30.60 in1036.2 mb 0.00 in0.0 mm 0.00 in0.0 mm 0.00 in0.0 mm
04:35 PM 51.4°F10.8°C 38.8°F3.8°C 62% Calm Calm 3.5 mph5.6 kmh 30.60 in1036.2 mb 0.00 in0.0 mm 0.00 in0.0 mm 0.00 in0.0 mm
04:40 PM 51.4°F10.8°C 38.8°F3.8°C 62% Calm Calm 3.5 mph5.6 kmh 30.60 in1036.2 mb 0.00 in0.0 mm 0.00 in0.0 mm 0.00 in0.0 mm
04:45 PM 51.1°F10.6°C 38.5°F3.6°C 62% Calm Calm 3.0 mph4.8 kmh 30.60 in1036.2 mb 0.00 in0.0 mm 0.00 in0.0 mm 0.00 in0.0 mm
04:50 PM 51.1°F10.6°C 38.5°F3.6°C 62% 1.1 mph N1.8 kmh N 4.4 mph7.1 kmh 30.60 in1036.2 mb 0.00 in0.0 mm 0.00 in0.0 mm 0.00 in0.0 mm
04:55 PM 51.1°F10.6°C 38.5°F3.6°C 62% Calm Calm 4.4 mph7.1 kmh 30.60 in1036.2 mb 0.00 in0.0 mm 0.00 in0.0 mm 0.00 in0.0 mm
05:00 PM 50.7°F10.4°C 38.2°F3.4°C 62% 2.7 mph NNE4.3 kmh NNE 3.8 mph6.1 kmh 30.63 in1037.3 mb 0.00 in0.0 mm 0.00 in0.0 mm 0.00 in0.0 mm
05:05 PM 50.4°F10.2°C 38.2°F3.4°C 63% Calm Calm 3.8 mph6.1 kmh 30.63 in1037.3 mb 0.00 in0.0 mm 0.00 in0.0 mm 0.00 in0.0 mm
05:10 PM 50.0°F10.0°C 38.3°F3.5°C 64% Calm Calm 1.1 mph1.8 kmh 30.63 in1037.3 mb 0.00 in0.0 mm 0.00 in0.0 mm 0.00 in0.0 mm
05:15 PM 49.5°F9.7°C 38.2°F3.4°C 65% 1.1 mph NNE1.8 kmh NNE 1.4 mph2.3 kmh 30.63 in1037.3 mb 0.00 in0.0 mm 0.00 in0.0 mm 0.00 in0.0 mm
05:20 PM 49.3°F9.6°C 38.0°F3.3°C 65% Calm Calm 1.4 mph2.3 kmh 30.63 in1037.3 mb 0.00 in0.0 mm 0.00 in0.0 mm 0.00 in0.0 mm
05:25 PM 49.1°F9.5°C 37.8°F3.2°C 65% Calm Calm 2.7 mph4.3 kmh 30.63 in1037.3 mb 0.00 in0.0 mm 0.00 in0.0 mm 0.00 in0.0 mm
05:30 PM 48.7°F9.3°C 37.5°F3.1°C 65% Calm Calm 2.7 mph4.3 kmh 30.63 in1037.3 mb 0.00 in0.0 mm 0.00 in0.0 mm 0.00 in0.0 mm
05:35 PM 48.6°F9.2°C 37.7°F3.2°C 66% Calm Calm 1.6 mph2.6 kmh 30.63 in1037.3 mb 0.00 in0.0 mm 0.00 in0.0 mm 0.00 in0.0 mm
05:40 PM 48.6°F9.2°C 37.7°F3.2°C 66% Calm Calm -- 30.63 in1037.3 mb 0.00 in0.0 mm 0.00 in0.0 mm 0.00 in0.0 mm
05:45 PM 48.6°F9.2°C 37.7°F3.2°C 66% 1.4 mph NNW2.3 kmh NNW 3.5 mph5.6 kmh 30.63 in1037.3 mb 0.00 in0.0 mm 0.00 in0.0 mm 0.00 in0.0 mm
05:50 PM 48.6°F9.2°C 37.3°F2.9°C 65% Calm Calm 3.5 mph5.6 kmh 30.63 in1037.3 mb 0.00 in0.0 mm 0.00 in0.0 mm 0.00 in0.0 mm
05:55 PM 48.6°F9.2°C 37.7°F3.2°C 66% 1.1 mph NNE1.8 kmh NNE 3.0 mph4.8 kmh 30.63 in1037.3 mb 0.00 in0.0 mm 0.00 in0.0 mm 0.00 in0.0 mm
06:00 PM 48.4°F9.1°C 37.5°F3.1°C 66% 1.9 mph NNW3.1 kmh NNW 3.0 mph4.8 kmh 30.63 in1037.3 mb 0.00 in0.0 mm 0.00 in0.0 mm 0.00 in0.0 mm
06:05 PM 48.2°F9.0°C 37.4°F3.0°C 66% 3.0 mph WNW4.8 kmh WNW 3.0 mph4.8 kmh 30.63 in1037.3 mb 0.00 in0.0 mm 0.00 in0.0 mm 0.00 in0.0 mm
06:10 PM 47.8°F8.8°C 37.4°F3.0°C 67% Calm Calm 3.0 mph4.8 kmh 30.63 in1037.3 mb 0.00 in0.0 mm 0.00 in0.0 mm 0.00 in0.0 mm
06:15 PM 47.8°F8.8°C 37.8°F3.2°C 68% Calm Calm 2.5 mph4.0 kmh 30.63 in1037.3 mb 0.00 in0.0 mm 0.00 in0.0 mm 0.00 in0.0 mm
06:20 PM 47.8°F8.8°C 37.8°F3.2°C 68% Calm Calm 2.5 mph4.0 kmh 30.63 in1037.3 mb 0.00 in0.0 mm 0.00 in0.0 mm 0.00 in0.0 mm
06:25 PM 47.8°F8.8°C 37.8°F3.2°C 68% 1.1 mph W1.8 kmh W 1.6 mph2.6 kmh 30.63 in1037.3 mb 0.00 in0.0 mm 0.00 in0.0 mm 0.00 in0.0 mm
06:30 PM 47.7°F8.7°C 37.6°F3.1°C 68% 3.0 mph W4.8 kmh W 3.0 mph4.8 kmh 30.63 in1037.3 mb 0.00 in0.0 mm 0.00 in0.0 mm 0.00 in0.0 mm
06:35 PM 47.5°F8.6°C 37.8°F3.2°C 69% 1.4 mph W2.3 kmh W 3.0 mph4.8 kmh 30.63 in1037.3 mb 0.00 in0.0 mm 0.00 in0.0 mm 0.00 in0.0 mm
06:40 PM 47.3°F8.5°C 37.6°F3.1°C 69% Calm Calm 2.7 mph4.3 kmh 30.63 in1037.3 mb 0.00 in0.0 mm 0.00 in0.0 mm 0.00 in0.0 mm
06:45 PM 46.9°F8.3°C 37.3°F2.9°C 69% Calm Calm 1.9 mph3.1 kmh 30.66 in1038.3 mb 0.00 in0.0 mm 0.00 in0.0 mm 0.00 in0.0 mm
06:50 PM 46.8°F8.2°C 37.1°F2.8°C 69% Calm Calm 1.1 mph1.8 kmh 30.66 in1038.3 mb 0.00 in0.0 mm 0.00 in0.0 mm 0.00 in0.0 mm
06:55 PM 46.6°F8.1°C 37.3°F2.9°C 70% Calm Calm -- 30.66 in1038.3 mb 0.00 in0.0 mm 0.00 in0.0 mm 0.00 in0.0 mm
07:00 PM 46.2°F7.9°C 37.0°F2.8°C 70% Calm Calm -- 30.63 in1037.3 mb 0.00 in0.0 mm 0.00 in0.0 mm 0.00 in0.0 mm
07:05 PM 46.0°F7.8°C 37.2°F2.9°C 71% Calm Calm -- 30.63 in1037.3 mb 0.00 in0.0 mm 0.00 in0.0 mm 0.00 in0.0 mm
07:10 PM 45.9°F7.7°C 37.0°F2.8°C 71% Calm Calm -- 30.63 in1037.3 mb 0.00 in0.0 mm 0.00 in0.0 mm 0.00 in0.0 mm
07:15 PM 45.7°F7.6°C 36.8°F2.7°C 71% Calm Calm -- 30.63 in1037.3 mb 0.00 in0.0 mm 0.00 in0.0 mm 0.00 in0.0 mm
07:20 PM 45.7°F7.6°C 36.8°F2.7°C 71% Calm Calm 3.8 mph6.1 kmh 30.63 in1037.3 mb 0.00 in0.0 mm 0.00 in0.0 mm 0.00 in0.0 mm
07:25 PM 45.5°F7.5°C 37.0°F2.8°C 72% 1.9 mph WSW3.1 kmh WSW 3.8 mph6.1 kmh 30.63 in1037.3 mb 0.00 in0.0 mm 0.00 in0.0 mm 0.00 in0.0 mm
07:30 PM 45.3°F7.4°C 36.8°F2.7°C 72% Calm Calm 1.9 mph3.1 kmh 30.63 in1037.3 mb 0.00 in0.0 mm 0.00 in0.0 mm 0.00 in0.0 mm
07:35 PM 45.1°F7.3°C 36.6°F2.6°C 72% Calm Calm 1.9 mph3.1 kmh 30.63 in1037.3 mb 0.00 in0.0 mm 0.00 in0.0 mm 0.00 in0.0 mm
07:40 PM 45.1°F7.3°C 37.0°F2.8°C 73% Calm Calm 1.4 mph2.3 kmh 30.63 in1037.3 mb 0.00 in0.0 mm 0.00 in0.0 mm 0.00 in0.0 mm
07:45 PM 45.0°F7.2°C 36.8°F2.7°C 73% Calm Calm 1.4 mph2.3 kmh 30.63 in1037.3 mb 0.00 in0.0 mm 0.00 in0.0 mm 0.00 in0.0 mm
07:50 PM 44.8°F7.1°C 37.0°F2.8°C 74% Calm Calm 2.5 mph4.0 kmh 30.63 in1037.3 mb 0.00 in0.0 mm 0.00 in0.0 mm 0.00 in0.0 mm
07:55 PM 44.8°F7.1°C 37.0°F2.8°C 74% Calm Calm 3.0 mph4.8 kmh 30.63 in1037.3 mb 0.00 in0.0 mm 0.00 in0.0 mm 0.00 in0.0 mm
08:00 PM 44.8°F7.1°C 37.0°F2.8°C 74% Calm Calm 3.0 mph4.8 kmh 30.63 in1037.3 mb 0.00 in0.0 mm 0.00 in0.0 mm 0.00 in0.0 mm
08:05 PM 44.6°F7.0°C 36.8°F2.7°C 74% Calm Calm -- 30.63 in1037.3 mb 0.00 in0.0 mm 0.00 in0.0 mm 0.00 in0.0 mm
08:10 PM 44.6°F7.0°C 36.8°F2.7°C 74% Calm Calm -- 30.63 in1037.3 mb 0.00 in0.0 mm 0.00 in0.0 mm 0.00 in0.0 mm
08:15 PM 44.4°F6.9°C 37.0°F2.8°C 75% 1.6 mph SSW2.6 kmh SSW 1.6 mph2.6 kmh 30.63 in1037.3 mb 0.00 in0.0 mm 0.00 in0.0 mm 0.00 in0.0 mm
08:20 PM 44.2°F6.8°C 36.8°F2.7°C 75% Calm Calm 1.6 mph2.6 kmh 30.63 in1037.3 mb 0.00 in0.0 mm 0.00 in0.0 mm 0.00 in0.0 mm
08:25 PM 44.2°F6.8°C 37.2°F2.9°C 76% Calm Calm 1.4 mph2.3 kmh 30.63 in1037.3 mb 0.00 in0.0 mm 0.00 in0.0 mm 0.00 in0.0 mm
08:30 PM 44.2°F6.8°C 37.2°F2.9°C 76% Calm Calm 1.1 mph1.8 kmh 30.63 in1037.3 mb 0.00 in0.0 mm 0.00 in0.0 mm 0.00 in0.0 mm
08:35 PM 44.2°F6.8°C 37.2°F2.9°C 76% Calm Calm 3.0 mph4.8 kmh 30.63 in1037.3 mb 0.00 in0.0 mm 0.00 in0.0 mm 0.00 in0.0 mm
08:40 PM 44.2°F6.8°C 37.2°F2.9°C 76% Calm Calm 3.0 mph4.8 kmh 30.63 in1037.3 mb 0.00 in0.0 mm 0.00 in0.0 mm 0.00 in0.0 mm
08:45 PM 44.1°F6.7°C 37.0°F2.8°C 76% Calm Calm 3.8 mph6.1 kmh 30.63 in1037.3 mb 0.00 in0.0 mm 0.00 in0.0 mm 0.00 in0.0 mm
08:50 PM 44.1°F6.7°C 37.3°F2.9°C 77% Calm Calm 3.8 mph6.1 kmh 30.63 in1037.3 mb 0.00 in0.0 mm 0.00 in0.0 mm 0.00 in0.0 mm
08:55 PM 43.9°F6.6°C 37.1°F2.8°C 77% Calm Calm -- 30.63 in1037.3 mb 0.00 in0.0 mm 0.00 in0.0 mm 0.00 in0.0 mm
09:00 PM 43.9°F6.6°C 37.1°F2.8°C 77% 1.4 mph SW2.3 kmh SW 1.4 mph2.3 kmh 30.63 in1037.3 mb 0.00 in0.0 mm 0.00 in0.0 mm 0.00 in0.0 mm
09:05 PM 43.9°F6.6°C 37.1°F2.8°C 77% 1.4 mph SW2.3 kmh SW 3.3 mph5.3 kmh 30.63 in1037.3 mb 0.00 in0.0 mm 0.00 in0.0 mm 0.00 in0.0 mm
09:10 PM 43.9°F6.6°C 37.1°F2.8°C 77% 2.5 mph SW4.0 kmh SW 3.3 mph5.3 kmh 30.63 in1037.3 mb 0.00 in0.0 mm 0.00 in0.0 mm 0.00 in0.0 mm
09:15 PM 43.9°F6.6°C 37.5°F3.1°C 78% Calm Calm 2.7 mph4.3 kmh 30.63 in1037.3 mb 0.00 in0.0 mm 0.00 in0.0 mm 0.00 in0.0 mm
09:20 PM 43.9°F6.6°C 37.1°F2.8°C 77% 3.8 mph SSW6.1 kmh SSW 3.8 mph6.1 kmh 30.63 in1037.3 mb 0.00 in0.0 mm 0.00 in0.0 mm 0.00 in0.0 mm
09:25 PM 43.7°F6.5°C 37.0°F2.8°C 77% Calm Calm 3.8 mph6.1 kmh 30.63 in1037.3 mb 0.00 in0.0 mm 0.00 in0.0 mm 0.00 in0.0 mm
09:30 PM 43.5°F6.4°C 36.8°F2.7°C 77% Calm Calm 1.6 mph2.6 kmh 30.63 in1037.3 mb 0.00 in0.0 mm 0.00 in0.0 mm 0.00 in0.0 mm
09:35 PM 43.3°F6.3°C 36.9°F2.7°C 78% Calm Calm 1.1 mph1.8 kmh 30.63 in1037.3 mb 0.00 in0.0 mm 0.00 in0.0 mm 0.00 in0.0 mm
09:40 PM 43.3°F6.3°C 36.9°F2.7°C 78% Calm Calm 1.6 mph2.6 kmh 30.63 in1037.3 mb 0.00 in0.0 mm 0.00 in0.0 mm 0.00 in0.0 mm
09:45 PM 43.2°F6.2°C 36.8°F2.7°C 78% Calm Calm 3.3 mph5.3 kmh 30.60 in1036.2 mb 0.00 in0.0 mm 0.00 in0.0 mm 0.00 in0.0 mm
09:50 PM 43.2°F6.2°C 36.8°F2.7°C 78% Calm Calm 3.3 mph5.3 kmh 30.60 in1036.2 mb 0.00 in0.0 mm 0.00 in0.0 mm 0.00 in0.0 mm
09:55 PM 43.0°F6.1°C 36.6°F2.6°C 78% Calm Calm -- 30.60 in1036.2 mb 0.00 in0.0 mm 0.00 in0.0 mm 0.00 in0.0 mm
10:00 PM 43.0°F6.1°C 36.9°F2.7°C 79% Calm Calm 1.4 mph2.3 kmh 30.60 in1036.2 mb 0.00 in0.0 mm 0.00 in0.0 mm 0.00 in0.0 mm
10:05 PM 42.8°F6.0°C 36.7°F2.6°C 79% Calm Calm 1.4 mph2.3 kmh 30.60 in1036.2 mb 0.00 in0.0 mm 0.00 in0.0 mm 0.00 in0.0 mm
10:10 PM 42.8°F6.0°C 36.7°F2.6°C 79% Calm Calm 2.5 mph4.0 kmh 30.60 in1036.2 mb 0.00 in0.0 mm 0.00 in0.0 mm 0.00 in0.0 mm
10:15 PM 42.8°F6.0°C 36.7°F2.6°C 79% Calm Calm 2.5 mph4.0 kmh 30.60 in1036.2 mb 0.00 in0.0 mm 0.00 in0.0 mm 0.00 in0.0 mm
10:20 PM 42.6°F5.9°C 36.9°F2.7°C 80% Calm Calm 1.1 mph1.8 kmh 30.60 in1036.2 mb 0.00 in0.0 mm 0.00 in0.0 mm 0.00 in0.0 mm
10:25 PM 42.6°F5.9°C 36.9°F2.7°C 80% Calm Calm 1.4 mph2.3 kmh 30.60 in1036.2 mb 0.00 in0.0 mm 0.00 in0.0 mm 0.00 in0.0 mm
10:30 PM 42.4°F5.8°C 36.7°F2.6°C 80% Calm Calm 2.7 mph4.3 kmh 30.60 in1036.2 mb 0.00 in0.0 mm 0.00 in0.0 mm 0.00 in0.0 mm
10:35 PM 42.6°F5.9°C 37.2°F2.9°C 81% Calm Calm 2.7 mph4.3 kmh 30.60 in1036.2 mb 0.00 in0.0 mm 0.00 in0.0 mm 0.00 in0.0 mm
10:40 PM 42.8°F6.0°C 37.1°F2.8°C 80% Calm Calm 1.9 mph3.1 kmh 30.60 in1036.2 mb 0.00 in0.0 mm 0.00 in0.0 mm 0.00 in0.0 mm
10:45 PM 42.8°F6.0°C 37.4°F3.0°C 81% Calm Calm 1.9 mph3.1 kmh 30.60 in1036.2 mb 0.00 in0.0 mm 0.00 in0.0 mm 0.00 in0.0 mm
10:50 PM 42.8°F6.0°C 37.1°F2.8°C 80% Calm Calm 4.1 mph6.6 kmh 30.60 in1036.2 mb 0.00 in0.0 mm 0.00 in0.0 mm 0.00 in0.0 mm
10:55 PM 42.8°F6.0°C 37.1°F2.8°C 80% 3.5 mph SW5.6 kmh SW 4.1 mph6.6 kmh 30.60 in1036.2 mb 0.00 in0.0 mm 0.00 in0.0 mm 0.00 in0.0 mm
11:00 PM 42.6°F5.9°C 36.9°F2.7°C 80% 2.7 mph SW4.3 kmh SW 3.5 mph5.6 kmh 30.60 in1036.2 mb 0.00 in0.0 mm 0.00 in0.0 mm 0.00 in0.0 mm
11:05 PM 42.4°F5.8°C 37.0°F2.8°C 81% 1.4 mph SW2.3 kmh SW 3.5 mph5.6 kmh 30.60 in1036.2 mb 0.00 in0.0 mm 0.00 in0.0 mm 0.00 in0.0 mm
11:10 PM 42.4°F5.8°C 37.0°F2.8°C 81% 1.1 mph SW1.8 kmh SW 3.3 mph5.3 kmh 30.60 in1036.2 mb 0.00 in0.0 mm 0.00 in0.0 mm 0.00 in0.0 mm
11:15 PM 42.4°F5.8°C 37.0°F2.8°C 81% Calm Calm 1.4 mph2.3 kmh 30.60 in1036.2 mb 0.00 in0.0 mm 0.00 in0.0 mm 0.00 in0.0 mm
11:20 PM 42.3°F5.7°C 36.8°F2.7°C 81% 1.6 mph SW2.6 kmh SW 1.6 mph2.6 kmh 30.60 in1036.2 mb 0.00 in0.0 mm 0.00 in0.0 mm 0.00 in0.0 mm
11:25 PM 42.4°F5.8°C 37.0°F2.8°C 81% Calm Calm 1.6 mph2.6 kmh 30.60 in1036.2 mb 0.00 in0.0 mm 0.00 in0.0 mm 0.00 in0.0 mm
11:30 PM 42.4°F5.8°C 37.3°F2.9°C 82% 3.3 mph SW5.3 kmh SW 4.4 mph7.1 kmh 30.57 in1035.2 mb 0.00 in0.0 mm 0.00 in0.0 mm 0.00 in0.0 mm
11:35 PM 42.4°F5.8°C 37.3°F2.9°C 82% 1.9 mph SW3.1 kmh SW 4.4 mph7.1 kmh 30.57 in1035.2 mb 0.00 in0.0 mm 0.00 in0.0 mm 0.00 in0.0 mm
11:40 PM 42.6°F5.9°C 37.2°F2.9°C 81% 3.8 mph SW6.1 kmh SW 4.6 mph7.4 kmh 30.57 in1035.2 mb 0.00 in0.0 mm 0.00 in0.0 mm 0.00 in0.0 mm
11:45 PM 42.6°F5.9°C 37.5°F3.1°C 82% 1.9 mph SW3.1 kmh SW 4.6 mph7.4 kmh 30.57 in1035.2 mb 0.00 in0.0 mm 0.00 in0.0 mm 0.00 in0.0 mm
11:50 PM 42.6°F5.9°C 37.5°F3.1°C 82% 3.8 mph SW6.1 kmh SW 3.8 mph6.1 kmh 30.57 in1035.2 mb 0.00 in0.0 mm 0.00 in0.0 mm 0.00 in0.0 mm
11:55 PM 42.6°F5.9°C 37.5°F3.1°C 82% 2.5 mph SW4.0 kmh SW 3.8 mph6.1 kmh 30.57 in1035.2 mb 0.00 in0.0 mm 0.00 in0.0 mm 0.00 in0.0 mm